createdAt,value
2022-12-18T00:01:57.885Z,101754.09
2022-12-18T00:04:28.318Z,101766.06
2022-12-18T00:06:56.206Z,101765.91
2022-12-18T00:09:24.792Z,101774.84
2022-12-18T00:11:52.682Z,101764.66
2022-12-18T00:14:20.623Z,101768.72
2022-12-18T00:16:48.915Z,101775.56
2022-12-18T00:19:17.002Z,101775.13
2022-12-18T00:21:44.992Z,101768.13
2022-12-18T00:24:13.315Z,101777.34
2022-12-18T00:26:41.430Z,101781.72
2022-12-18T00:29:14.854Z,101782.91
2022-12-18T00:31:44.929Z,101784.34
2022-12-18T00:34:14.483Z,101792.97
2022-12-18T00:36:42.962Z,101789.31
2022-12-18T00:39:13.273Z,101795.72
2022-12-18T00:41:59.871Z,101801.69
2022-12-18T00:44:27.926Z,101809.50
2022-12-18T00:46:55.787Z,101817.97
2022-12-18T00:49:23.807Z,101804.97
2022-12-18T00:51:51.590Z,101802.41
2022-12-18T00:54:19.641Z,101801.75
2022-12-18T00:56:49.599Z,101810.53
2022-12-18T00:59:19.568Z,101806.00
2022-12-18T01:01:48.265Z,101812.75
2022-12-18T01:04:16.559Z,101813.16
2022-12-18T01:06:46.820Z,101823.06
2022-12-18T01:09:14.927Z,101827.69
2022-12-18T01:11:42.609Z,101832.25
2022-12-18T01:14:12.587Z,101835.22
2022-12-18T01:16:40.500Z,101835.91
2022-12-18T01:19:08.452Z,101833.34
2022-12-18T01:21:36.256Z,101830.09
2022-12-18T01:24:06.089Z,101841.59
2022-12-18T01:26:34.915Z,101842.97
2022-12-18T01:29:02.927Z,101845.59
2022-12-18T01:31:33.511Z,101846.00
2022-12-18T01:34:05.740Z,101853.00
2022-12-18T01:36:38.500Z,101848.63
2022-12-18T01:39:14.369Z,101867.88
2022-12-18T01:42:02.329Z,101863.56
2022-12-18T01:45:00.381Z,101867.22
2022-12-18T01:47:51.087Z,101879.59
2022-12-18T01:50:24.572Z,101885.75
2022-12-18T01:53:16.916Z,101893.09
2022-12-18T01:55:52.800Z,101889.88
2022-12-18T01:58:28.722Z,101890.03
2022-12-18T02:00:57.556Z,101884.31
2022-12-18T02:03:25.338Z,101893.91
2022-12-18T02:06:13.207Z,101895.69
2022-12-18T02:08:49.477Z,101893.50
2022-12-18T02:11:35.563Z,101903.16
2022-12-18T02:14:12.850Z,101900.44
2022-12-18T02:17:03.189Z,101904.16
2022-12-18T02:19:58.310Z,101912.38
2022-12-18T02:22:47.336Z,101913.97
2022-12-18T02:25:27.209Z,101920.69
2022-12-18T02:27:59.180Z,101933.78
2022-12-18T02:30:32.029Z,101926.44
2022-12-18T02:33:03.272Z,101923.88
2022-12-18T02:35:32.710Z,101923.75
2022-12-18T02:38:04.705Z,101930.47
2022-12-18T02:40:37.115Z,101925.81
2022-12-18T02:43:14.766Z,101931.56
2022-12-18T02:45:58.049Z,101938.91
2022-12-18T02:48:33.966Z,101944.22
2022-12-18T02:51:12.835Z,101948.72
2022-12-18T02:54:22.482Z,101950.66
2022-12-18T02:56:57.430Z,101952.31
2022-12-18T02:59:58.565Z,101961.03
2022-12-18T03:02:55.801Z,101965.91
2022-12-18T03:05:45.258Z,101973.09
2022-12-18T03:08:31.136Z,101979.50
2022-12-18T03:11:05.736Z,101974.53
2022-12-18T03:13:58.749Z,101993.72
2022-12-18T03:16:32.160Z,101992.69
2022-12-18T03:19:05.084Z,101995.16
2022-12-18T03:21:44.820Z,101999.41
2022-12-18T03:24:13.111Z,101986.22
2022-12-18T03:26:45.750Z,101991.88
2022-12-18T03:29:32.203Z,102000.72
2022-12-18T03:32:06.824Z,102004.47
2022-12-18T03:34:37.562Z,102012.19
2022-12-18T03:37:09.000Z,102008.69
2022-12-18T03:39:39.427Z,102016.69
2022-12-18T03:42:35.547Z,102022.25
2022-12-18T03:45:21.112Z,102022.41
2022-12-18T03:47:58.382Z,102035.00
2022-12-18T03:50:45.014Z,102048.63
2022-12-18T03:53:36.855Z,102041.97
2022-12-18T03:56:07.228Z,102037.91
2022-12-18T03:58:42.161Z,102030.03
2022-12-18T04:01:28.187Z,102032.19
2022-12-18T04:03:57.837Z,102038.88
2022-12-18T04:06:26.238Z,102045.25
2022-12-18T04:08:54.887Z,102059.31
2022-12-18T04:11:26.122Z,102059.31
2022-12-18T04:13:59.289Z,102054.03
2022-12-18T04:16:30.244Z,102047.31
2022-12-18T04:19:02.299Z,102049.72
2022-12-18T04:21:35.088Z,102057.19
2022-12-18T04:24:03.212Z,102056.06
2022-12-18T04:26:31.500Z,102066.63
2022-12-18T04:29:13.966Z,102076.84
2022-12-18T04:31:41.620Z,102086.09
2022-12-18T04:34:10.783Z,102094.72
2022-12-18T04:36:45.321Z,102095.94
2022-12-18T04:39:15.031Z,102105.81
2022-12-18T04:41:42.993Z,102099.56
2022-12-18T04:44:11.484Z,102105.81
2022-12-18T04:46:39.308Z,102111.97
2022-12-18T04:49:07.349Z,102107.94
2022-12-18T04:51:35.104Z,102116.03
2022-12-18T04:54:03.192Z,102124.84
2022-12-18T04:56:33.007Z,102119.63
2022-12-18T04:59:01.057Z,102117.59
2022-12-18T05:01:34.278Z,102119.16
2022-12-18T05:04:03.953Z,102125.53
2022-12-18T05:06:31.839Z,102127.47
2022-12-18T05:08:59.827Z,102128.78
2022-12-18T05:11:27.513Z,102131.69
2022-12-18T05:13:55.451Z,102141.22
2022-12-18T05:16:23.243Z,102142.78
2022-12-18T05:18:51.225Z,102142.25
2022-12-18T05:21:19.004Z,102152.47
2022-12-18T05:23:47.121Z,102152.84
2022-12-18T05:26:18.750Z,102161.44
2022-12-18T05:28:47.140Z,102160.59
2022-12-18T05:31:15.618Z,102161.56
2022-12-18T05:33:44.276Z,102173.16
2022-12-18T05:36:12.847Z,102172.81
2022-12-18T05:38:41.433Z,102178.72
2022-12-18T05:41:09.912Z,102186.19
2022-12-18T05:43:39.898Z,102191.75
2022-12-18T05:46:12.178Z,102177.50
2022-12-18T05:48:40.308Z,102180.91
2022-12-18T05:51:13.803Z,102192.44
2022-12-18T05:53:42.970Z,102188.84
2022-12-18T05:56:15.622Z,102197.91
2022-12-18T05:58:43.708Z,102213.78
2022-12-18T06:01:18.101Z,102212.91
2022-12-18T06:03:47.167Z,102214.47
2022-12-18T06:06:24.729Z,102212.34
2022-12-18T06:08:53.446Z,102218.34
2022-12-18T06:11:23.557Z,102227.66
2022-12-18T06:13:58.907Z,102234.66
2022-12-18T06:16:28.636Z,102229.72
2022-12-18T06:19:04.776Z,102230.94
2022-12-18T06:21:32.984Z,102242.63
2022-12-18T06:24:02.045Z,102237.44
2022-12-18T06:26:29.781Z,102245.56
2022-12-18T06:28:57.994Z,102251.16
2022-12-18T06:31:27.237Z,102252.72
2022-12-18T06:33:55.346Z,102252.97
2022-12-18T06:36:23.240Z,102256.00
2022-12-18T06:38:51.290Z,102262.94
2022-12-18T06:41:21.437Z,102280.59
2022-12-18T06:43:49.844Z,102285.50
2022-12-18T06:46:18.159Z,102291.13
2022-12-18T06:48:50.103Z,102300.44
2022-12-18T06:51:23.067Z,102297.09
2022-12-18T06:53:51.063Z,102291.41
2022-12-18T06:56:18.823Z,102305.84
2022-12-18T06:58:46.975Z,102305.44
2022-12-18T07:01:15.412Z,102306.91
2022-12-18T07:03:44.176Z,102310.81
2022-12-18T07:06:18.893Z,102312.50
2022-12-18T07:08:48.071Z,102316.94
2022-12-18T07:11:16.770Z,102324.38
2022-12-18T07:13:46.183Z,102330.84
2022-12-18T07:16:23.917Z,102334.97
2022-12-18T07:18:55.016Z,102339.00
2022-12-18T07:21:24.663Z,102352.25
2022-12-18T07:23:52.807Z,102355.00
2022-12-18T07:26:21.670Z,102355.00
2022-12-18T07:28:50.316Z,102358.13
2022-12-18T07:31:23.219Z,102345.56
2022-12-18T07:33:52.474Z,102368.13
2022-12-18T07:36:23.856Z,102362.16
2022-12-18T07:38:53.513Z,102359.91
2022-12-18T07:41:21.571Z,102365.81
2022-12-18T07:43:50.058Z,102358.06
2022-12-18T07:46:18.665Z,102367.72
2022-12-18T07:48:49.918Z,102370.38
2022-12-18T07:51:19.326Z,102372.31
2022-12-18T07:53:48.813Z,102380.50
2022-12-18T07:56:30.320Z,102378.03
2022-12-18T07:59:00.304Z,102381.84
2022-12-18T08:01:28.679Z,102387.69
2022-12-18T08:03:58.187Z,102396.34
2022-12-18T08:06:26.127Z,102397.50
2022-12-18T08:08:55.880Z,102407.63
2022-12-18T08:11:26.440Z,102404.47
2022-12-18T08:13:54.824Z,102408.09
2022-12-18T08:16:23.458Z,102411.81
2022-12-18T08:18:54.190Z,102415.97
2022-12-18T08:21:27.764Z,102413.16
2022-12-18T08:23:58.552Z,102413.50
2022-12-18T08:26:29.428Z,102418.81
2022-12-18T08:28:58.977Z,102421.50
2022-12-18T08:31:29.281Z,102434.31
2022-12-18T08:33:57.849Z,102434.03
2022-12-18T08:36:26.455Z,102439.59
2022-12-18T08:38:55.576Z,102436.00
2022-12-18T08:41:23.338Z,102443.50
2022-12-18T08:44:10.292Z,102442.25
2022-12-18T08:46:40.994Z,102452.22
2022-12-18T08:49:10.495Z,102454.16
2022-12-18T08:51:38.717Z,102458.31
2022-12-18T08:54:07.176Z,102458.66
2022-12-18T08:56:35.413Z,102466.00
2022-12-18T08:59:03.727Z,102461.25
2022-12-18T09:01:32.106Z,102457.06
2022-12-18T09:04:00.365Z,102466.44
2022-12-18T09:06:28.228Z,102465.00
2022-12-18T09:08:56.176Z,102472.31
2022-12-18T09:11:26.755Z,102472.22
2022-12-18T09:13:56.973Z,102471.47
2022-12-18T09:16:31.754Z,102468.72
2022-12-18T09:19:01.764Z,102473.28
2022-12-18T09:21:37.417Z,102472.38
2022-12-18T09:24:07.315Z,102486.16
2022-12-18T09:26:37.619Z,102478.28
2022-12-18T09:29:08.084Z,102481.34
2022-12-18T09:31:36.585Z,102473.59
2022-12-18T09:34:04.548Z,102476.81
2022-12-18T09:36:32.312Z,102480.19
2022-12-18T09:39:03.728Z,102480.63
2022-12-18T09:41:48.405Z,102477.41
2022-12-18T09:44:27.380Z,102480.19
2022-12-18T09:47:18.525Z,102477.28
2022-12-18T09:49:49.717Z,102481.94
2022-12-18T09:52:34.592Z,102490.13
2022-12-18T09:55:23.866Z,102488.69
2022-12-18T09:58:08.539Z,102487.66
2022-12-18T10:00:37.217Z,102486.78
2022-12-18T10:03:14.124Z,102489.03
2022-12-18T10:06:02.535Z,102492.69
2022-12-18T10:08:54.848Z,102488.25
2022-12-18T10:11:36.064Z,102484.78
2022-12-18T10:14:35.030Z,102491.09
2022-12-18T10:17:30.464Z,102481.50
2022-12-18T10:20:16.702Z,102471.44
2022-12-18T10:23:09.535Z,102487.25
2022-12-18T10:25:53.392Z,102490.69
2022-12-18T10:28:23.369Z,102494.44
2022-12-18T10:30:51.312Z,102498.63
2022-12-18T10:33:22.957Z,102510.06
2022-12-18T10:35:53.701Z,102510.31
2022-12-18T10:38:28.191Z,102503.63
2022-12-18T10:41:22.031Z,102503.19
2022-12-18T10:44:09.973Z,102503.50
2022-12-18T10:46:38.086Z,102498.19
2022-12-18T10:49:06.186Z,102493.34
2022-12-18T10:51:38.735Z,102497.44
2022-12-18T10:54:26.812Z,102499.50
2022-12-18T10:57:14.749Z,102506.44
2022-12-18T11:00:21.755Z,102504.78
2022-12-18T11:02:49.682Z,102511.47
2022-12-18T11:05:34.258Z,102504.50
2022-12-18T11:08:02.121Z,102505.44
2022-12-18T11:10:41.899Z,102508.47
2022-12-18T11:13:22.532Z,102504.78
2022-12-18T11:15:51.572Z,102511.66
2022-12-18T11:18:31.714Z,102523.41
2022-12-18T11:21:10.342Z,102529.16
2022-12-18T11:23:47.388Z,102524.91
2022-12-18T11:26:15.636Z,102528.16
2022-12-18T11:29:08.629Z,102538.72
2022-12-18T11:31:36.773Z,102539.44
2022-12-18T11:34:34.347Z,102529.97
2022-12-18T11:37:05.411Z,102518.38
2022-12-18T11:39:33.151Z,102519.63
2022-12-18T11:42:12.920Z,102519.63
2022-12-18T11:44:47.381Z,102516.06
2022-12-18T11:47:37.161Z,102526.81
2022-12-18T11:50:17.172Z,102526.97
2022-12-18T11:52:45.500Z,102530.94
2022-12-18T11:55:15.732Z,102532.19
2022-12-18T11:58:31.112Z,102520.06
2022-12-18T12:01:44.069Z,102526.25
2022-12-18T12:04:31.017Z,102522.97
2022-12-18T12:07:31.707Z,102534.25
2022-12-18T12:10:18.561Z,102542.50
2022-12-18T12:13:16.228Z,102542.09
2022-12-18T12:15:56.006Z,102533.53
2022-12-18T12:18:37.111Z,102549.72
2022-12-18T12:21:17.835Z,102552.94
2022-12-18T12:24:10.279Z,102551.69
2022-12-18T12:26:57.357Z,102571.81
2022-12-18T12:29:27.810Z,102563.22
2022-12-18T12:32:23.151Z,102554.41
2022-12-18T12:35:09.596Z,102554.50
2022-12-18T12:38:00.954Z,102555.97
2022-12-18T12:43:47.944Z,102561.13
2022-12-18T12:46:22.777Z,102557.59
2022-12-18T12:48:58.694Z,102572.66
2022-12-18T12:51:45.718Z,102578.38
2022-12-18T12:54:22.378Z,102579.09
2022-12-18T12:56:59.335Z,102582.34
2022-12-18T12:59:39.688Z,102586.78
2022-12-18T13:02:45.717Z,102588.25
2022-12-18T13:05:26.258Z,102588.16
2022-12-18T13:08:09.994Z,102590.31
2022-12-18T13:10:40.719Z,102593.13
2022-12-18T13:13:23.661Z,102596.25
2022-12-18T13:16:08.424Z,102599.28
2022-12-18T13:18:36.712Z,102606.50
2022-12-18T13:21:42.509Z,102615.47
2022-12-18T13:24:28.609Z,102610.00
2022-12-18T13:26:57.473Z,102621.88
2022-12-18T13:29:46.514Z,102625.13
2022-12-18T13:32:28.809Z,102616.72
2022-12-18T13:35:18.911Z,102620.44
2022-12-18T13:37:55.755Z,102628.41
2022-12-18T13:40:48.009Z,102636.19
2022-12-18T13:43:24.656Z,102636.97
2022-12-18T13:46:06.460Z,102626.56
2022-12-18T13:48:39.055Z,102630.19
2022-12-18T13:51:12.129Z,102632.22
2022-12-18T13:53:47.663Z,102625.25
2022-12-18T13:56:29.354Z,102628.06
2022-12-18T13:59:17.597Z,102626.66
2022-12-18T14:01:55.329Z,102633.03
2022-12-18T14:04:31.255Z,102631.66
2022-12-18T14:07:17.846Z,102639.88
2022-12-18T14:10:26.048Z,102653.31
2022-12-18T14:13:00.702Z,102652.25
2022-12-18T14:15:36.253Z,102660.84
2022-12-18T14:18:26.643Z,102656.25
2022-12-18T14:20:58.762Z,102652.38
2022-12-18T14:23:34.766Z,102652.69
2022-12-18T14:26:19.995Z,102656.84
2022-12-18T14:28:47.718Z,102659.41
2022-12-18T14:31:24.015Z,102666.41
2022-12-18T14:33:52.733Z,102661.03
2022-12-18T14:36:24.290Z,102669.22
2022-12-18T14:39:00.315Z,102659.59
2022-12-18T14:41:29.791Z,102658.00
2022-12-18T14:44:08.232Z,102668.63
2022-12-18T14:46:37.321Z,102664.91
2022-12-18T14:49:33.848Z,102664.72
2022-12-18T14:52:04.682Z,102667.22
2022-12-18T14:54:33.481Z,102661.63
2022-12-18T14:57:20.184Z,102656.25
2022-12-18T14:59:47.907Z,102671.69
2022-12-18T15:02:29.006Z,102674.09
2022-12-18T15:05:21.636Z,102678.53
2022-12-18T15:07:53.565Z,102676.91
2022-12-18T15:10:31.606Z,102682.63
2022-12-18T15:13:03.593Z,102689.72
2022-12-18T15:15:37.118Z,102677.50
2022-12-18T15:18:07.982Z,102685.22
2022-12-18T15:20:42.095Z,102685.03
2022-12-18T15:23:36.255Z,102684.72
2022-12-18T15:26:10.045Z,102687.88
2022-12-18T15:28:56.498Z,102690.16
2022-12-18T15:31:29.072Z,102691.78
2022-12-18T15:33:57.062Z,102702.34
2022-12-18T15:36:26.811Z,102689.81
2022-12-18T15:39:04.917Z,102694.06
2022-12-18T15:41:36.597Z,102697.75
2022-12-18T15:44:28.255Z,102713.56
2022-12-18T15:46:55.935Z,102707.50
2022-12-18T15:49:23.895Z,102704.66
2022-12-18T15:51:59.060Z,102712.59
2022-12-18T15:54:50.436Z,102709.97
2022-12-18T15:57:24.236Z,102709.06
2022-12-18T15:59:54.574Z,102708.56
2022-12-18T16:02:24.021Z,102709.72
2022-12-18T16:04:53.323Z,102722.16
2022-12-18T16:07:24.593Z,102715.44
2022-12-18T16:09:54.171Z,102717.03
2022-12-18T16:12:25.511Z,102717.22
2022-12-18T16:14:53.478Z,102732.50
2022-12-18T16:17:21.270Z,102714.00
2022-12-18T16:19:49.429Z,102714.53
2022-12-18T16:22:28.899Z,102715.09
2022-12-18T16:24:58.001Z,102715.94
2022-12-18T16:27:26.439Z,102720.09
2022-12-18T16:29:54.530Z,102724.34
2022-12-18T16:32:24.520Z,102715.63
2022-12-18T16:34:52.840Z,102718.44
2022-12-18T16:37:20.599Z,102725.97
2022-12-18T16:39:48.589Z,102732.22
2022-12-18T16:42:20.830Z,102742.28
2022-12-18T16:44:50.405Z,102732.69
2022-12-18T16:47:18.832Z,102729.66
2022-12-18T16:49:47.271Z,102723.00
2022-12-18T16:52:15.167Z,102733.25
2022-12-18T16:54:43.171Z,102732.03
2022-12-18T16:57:15.890Z,102726.53
2022-12-18T16:59:44.215Z,102737.34
2022-12-18T17:02:22.812Z,102739.06
2022-12-18T17:04:55.399Z,102738.00
2022-12-18T17:07:23.932Z,102736.47
2022-12-18T17:09:54.024Z,102725.28
2022-12-18T17:12:21.950Z,102738.59
2022-12-18T17:14:49.905Z,102735.94
2022-12-18T17:17:21.382Z,102739.13
2022-12-18T17:19:51.055Z,102747.25
2022-12-18T17:22:19.525Z,102750.25
2022-12-18T17:24:48.130Z,102749.81
2022-12-18T17:27:16.228Z,102759.09
2022-12-18T17:29:47.724Z,102759.41
2022-12-18T17:32:17.882Z,102760.16
2022-12-18T17:34:46.578Z,102755.44
2022-12-18T17:37:15.540Z,102754.84
2022-12-18T17:39:43.754Z,102750.94
2022-12-18T17:42:15.171Z,102753.09
2022-12-18T17:44:44.875Z,102749.38
2022-12-18T17:47:14.007Z,102742.00
2022-12-18T17:49:42.088Z,102750.25
2022-12-18T17:52:10.280Z,102747.19
2022-12-18T17:54:41.492Z,102745.94
2022-12-18T17:57:10.370Z,102748.94
2022-12-18T17:59:38.461Z,102760.97
2022-12-18T18:02:06.362Z,102766.97
2022-12-18T18:04:34.634Z,102766.97
2022-12-18T18:07:03.112Z,102774.19
2022-12-18T18:09:31.216Z,102783.22
2022-12-18T18:12:17.726Z,102795.03
2022-12-18T18:14:45.954Z,102793.31
2022-12-18T18:17:13.836Z,102790.16
2022-12-18T18:19:42.211Z,102781.66
2022-12-18T18:22:11.888Z,102776.72
2022-12-18T18:24:39.948Z,102783.22
2022-12-18T18:27:07.736Z,102767.78
2022-12-18T18:29:36.524Z,102769.44
2022-12-18T18:32:04.813Z,102766.72
2022-12-18T18:34:33.573Z,102770.28
2022-12-18T18:37:01.863Z,102774.09
2022-12-18T18:39:30.484Z,102781.28
2022-12-18T18:41:58.148Z,102791.13
2022-12-18T18:44:26.550Z,102797.34
2022-12-18T18:46:56.271Z,102800.19
2022-12-18T18:49:27.540Z,102802.16
2022-12-18T18:51:57.562Z,102799.59
2022-12-18T18:54:26.504Z,102801.16
2022-12-18T18:59:43.408Z,102787.41
2022-12-18T19:02:15.190Z,102787.00
2022-12-18T19:04:45.880Z,102787.09
2022-12-18T19:07:24.875Z,102780.50
2022-12-18T19:10:03.557Z,102779.03
2022-12-18T19:12:52.706Z,102779.13
2022-12-18T19:15:23.417Z,102773.22
2022-12-18T19:17:51.319Z,102774.41
2022-12-18T19:20:20.214Z,102771.22
2022-12-18T19:22:55.237Z,102771.47
2022-12-18T19:25:38.511Z,102776.56
2022-12-18T19:28:13.524Z,102789.25
2022-12-18T19:30:50.247Z,102799.41
2022-12-18T19:33:41.786Z,102795.94
2022-12-18T19:36:18.555Z,102789.66
2022-12-18T19:38:46.931Z,102800.75
2022-12-18T19:41:16.797Z,102803.88
2022-12-18T19:43:46.886Z,102808.22
2022-12-18T19:46:17.221Z,102812.59
2022-12-18T19:48:45.690Z,102813.56
2022-12-18T19:51:26.277Z,102820.06
2022-12-18T19:53:58.757Z,102824.00
2022-12-18T19:56:31.490Z,102822.50
2022-12-18T19:58:59.796Z,102815.50
2022-12-18T20:01:29.638Z,102821.31
2022-12-18T20:03:59.073Z,102818.47
2022-12-18T20:06:30.167Z,102811.97
2022-12-18T20:09:01.302Z,102792.72
2022-12-18T20:11:36.375Z,102814.94
2022-12-18T20:14:10.532Z,102806.25
2022-12-18T20:16:38.760Z,102814.84
2022-12-18T20:19:07.033Z,102816.13
2022-12-18T20:21:35.107Z,102812.00
2022-12-18T20:24:03.092Z,102811.56
2022-12-18T20:26:31.390Z,102810.59
2022-12-18T20:28:59.632Z,102807.63
2022-12-18T20:31:27.618Z,102816.69
2022-12-18T20:34:00.296Z,102811.19
2022-12-18T20:36:30.653Z,102810.22
2022-12-18T20:39:01.805Z,102808.63
2022-12-18T20:41:37.430Z,102806.06
2022-12-18T20:44:22.800Z,102810.03
2022-12-18T20:46:56.928Z,102806.75
2022-12-18T20:49:26.341Z,102813.13
2022-12-18T20:51:56.481Z,102801.59
2022-12-18T20:54:26.821Z,102793.75
2022-12-18T20:56:55.397Z,102795.72
2022-12-18T20:59:25.231Z,102805.28
2022-12-18T21:01:53.979Z,102820.78
2022-12-18T21:04:22.822Z,102826.13
2022-12-18T21:07:00.465Z,102833.19
2022-12-18T21:09:37.255Z,102839.91
2022-12-18T21:12:29.531Z,102841.28
2022-12-18T21:15:03.761Z,102833.81
2022-12-18T21:17:34.718Z,102833.50
2022-12-18T21:20:15.698Z,102836.53
2022-12-18T21:22:46.909Z,102829.84
2022-12-18T21:25:14.623Z,102822.38
2022-12-18T21:27:42.590Z,102822.59
2022-12-18T21:30:10.639Z,102827.53
2022-12-18T21:32:38.746Z,102824.75
2022-12-18T21:35:06.813Z,102821.69
2022-12-18T21:37:34.746Z,102815.13
2022-12-18T21:40:03.750Z,102824.13
2022-12-18T21:42:50.518Z,102826.47
2022-12-18T21:45:18.184Z,102820.22
2022-12-18T21:47:46.217Z,102815.09
2022-12-18T21:50:14.343Z,102814.13
2022-12-18T21:52:42.518Z,102810.13
2022-12-18T21:55:10.547Z,102797.75
2022-12-18T21:57:39.704Z,102788.63
2022-12-18T22:00:19.035Z,102788.56
2022-12-18T22:02:52.115Z,102774.59
2022-12-18T22:05:37.195Z,102782.63
2022-12-18T22:08:06.843Z,102772.81
2022-12-18T22:10:35.089Z,102770.63
2022-12-18T22:13:03.930Z,102761.63
2022-12-18T22:15:31.739Z,102763.94
2022-12-18T22:18:00.537Z,102741.72
2022-12-18T22:20:29.830Z,102754.75
2022-12-18T22:22:59.006Z,102747.22
2022-12-18T22:25:30.365Z,102744.53
2022-12-18T22:28:17.136Z,102738.69
2022-12-18T22:30:46.089Z,102721.28
2022-12-18T22:33:14.175Z,102727.56
2022-12-18T22:35:42.093Z,102715.16
2022-12-18T22:38:10.471Z,102714.59
2022-12-18T22:40:38.183Z,102715.56
2022-12-18T22:43:06.332Z,102713.09
2022-12-18T22:45:34.142Z,102726.41
2022-12-18T22:48:06.679Z,102722.84
2022-12-18T22:50:34.473Z,102727.38
2022-12-18T22:53:02.415Z,102722.91
2022-12-18T22:55:30.163Z,102720.03
2022-12-18T22:57:58.122Z,102724.81
2022-12-18T23:00:26.126Z,102733.38
2022-12-18T23:02:59.785Z,102726.91
2022-12-18T23:05:30.147Z,102726.09
2022-12-18T23:07:59.205Z,102721.28
2022-12-18T23:10:27.465Z,102722.97
2022-12-18T23:12:55.848Z,102717.53
2022-12-18T23:15:27.702Z,102719.19
2022-12-18T23:17:58.265Z,102720.50
2022-12-18T23:20:27.488Z,102733.25
2022-12-18T23:22:55.517Z,102734.00
2022-12-18T23:25:23.436Z,102723.63
2022-12-18T23:27:51.613Z,102719.13
2022-12-18T23:30:19.458Z,102715.66
2022-12-18T23:32:47.478Z,102716.56
2022-12-18T23:35:16.123Z,102719.97
2022-12-18T23:38:01.857Z,102695.31
2022-12-18T23:40:30.498Z,102720.50
2022-12-18T23:43:00.325Z,102723.84
2022-12-18T23:45:28.117Z,102724.72
2022-12-18T23:47:56.367Z,102720.03
2022-12-18T23:50:28.795Z,102724.53
2022-12-18T23:53:03.722Z,102730.97
2022-12-18T23:55:33.757Z,102728.44
2022-12-18T23:58:01.745Z,102720.44
